岡山グライダークラブ活動状況掲示板

岡山グライダークラブ
岡山市浦安南町639-1 岡南飛行場
 使用機:シャイベ式 SF25C型 ファルケ   JA2330
      ヴァレンティン式17E型 タイフーン  JA2342
 練習日:毎日曜日  クラブルーム:電話 086-265-1810
この掲示板は岡山グライダークラブの活動状況をお知らせする掲示板です。
!!!この掲示板は投稿規制をしています。!!!
クラブ関連各種情報は 岡山グライダークラブクラブルーム      を       .
  ブリーフイング情報は  岡山グライダークラブブリーフィングルーム  をご覧下さい。 .
※写真はクリックすると拡大して見ることが出来ます。
岡南飛行場へのアクセス等は 岡南飛行場管理事務所 をご覧ください。
クラブの ホームページ ができました。

!!!お待たせしました。新型コロナ感染症の感染が下火になったことから見学者等の受入を再開します。!!!
  注)なお、見学等の際には一般的な感染対策(マスク、ソーシャルディスタンス、黙食等)を順守してください。

 
11月27日
by OGC at 2022/11/27(日) 20:09:18 No.20221127200807  削除コメント
640 x 480 x 76,280バイト
No.1

11月27日
本日の参加者
  会員      16名
  その他     00名


@本日の様子






METAR
RJBK 270000Z 20003KT 180V240 20KM FEW025CU 11/8 Q1021 A3017
RJOB 270000Z 32005KT 280V020 CAVOK 12/08 Q1021
RJOT 270000Z 24006KT 9999 FEW025 13/08 Q1021
RJOA 270000Z VRB02KT CAVOK 12/05 Q1020
TAF
RJOB 262305Z 2700/2806 35006KT 9999 FEW030
RJOT 262305Z 2700/2806 25006KT 9999 FEW030
     BECMG 2700/2702 04005KT
RJOA 262305Z 2700/2806 15005KT 9999 FEW030


本日の天候は晴れでいいコンディションでしたが、機体の整備を行い
ました。


解散    17:00

本日のフライトはありません。

    << 戻る || ホームページ || 最新の掲示板へ